createdAt,value
2023-02-23T00:01:28.074Z,15.43
2023-02-23T00:03:57.282Z,12.77
2023-02-23T00:06:26.356Z,15.63
2023-02-23T00:08:54.658Z,15.83
2023-02-23T00:11:23.794Z,13.43
2023-02-23T00:13:52.262Z,13.90
2023-02-23T00:16:23.185Z,15.03
2023-02-23T00:18:53.894Z,12.23
2023-02-23T00:21:23.998Z,13.13
2023-02-23T00:23:54.038Z,12.87
2023-02-23T00:26:25.076Z,13.60
2023-02-23T00:28:55.127Z,12.80
2023-02-23T00:31:26.272Z,13.70
2023-02-23T00:33:55.773Z,12.83
2023-02-23T00:36:25.884Z,18.47
2023-02-23T00:38:54.900Z,12.07
2023-02-23T00:41:28.266Z,13.70
2023-02-23T00:43:57.169Z,11.43
2023-02-23T00:46:28.248Z,12.53
2023-02-23T00:48:57.896Z,13.50
2023-02-23T00:51:30.887Z,12.97
2023-02-23T00:54:00.082Z,14.53
2023-02-23T00:56:28.900Z,14.90
2023-02-23T00:58:57.230Z,15.27
2023-02-23T01:01:29.027Z,14.53
2023-02-23T01:03:57.053Z,14.73
2023-02-23T01:06:25.160Z,13.83
2023-02-23T01:08:56.718Z,14.03
2023-02-23T01:11:28.742Z,11.87
2023-02-23T01:13:58.961Z,14.17
2023-02-23T01:16:30.483Z,14.50
2023-02-23T01:19:00.531Z,17.80
2023-02-23T01:21:30.727Z,14.63
2023-02-23T01:24:00.310Z,20.00
2023-02-23T01:26:30.321Z,17.20
2023-02-23T01:29:00.650Z,18.37
2023-02-23T01:31:31.152Z,16.80
2023-02-23T01:34:01.072Z,19.37
2023-02-23T01:36:35.031Z,15.23
2023-02-23T01:39:05.853Z,18.67
2023-02-23T01:41:35.124Z,17.17
2023-02-23T01:44:05.581Z,17.33
2023-02-23T01:46:36.166Z,17.03
2023-02-23T01:49:05.116Z,17.63
2023-02-23T01:51:35.687Z,17.93
2023-02-23T01:54:10.844Z,20.83
2023-02-23T01:56:43.457Z,16.20
2023-02-23T01:59:15.173Z,15.83
2023-02-23T02:01:45.422Z,19.97
2023-02-23T02:04:16.635Z,21.50
2023-02-23T02:06:47.087Z,18.10
2023-02-23T02:09:18.268Z,18.67
2023-02-23T02:11:54.033Z,19.53
2023-02-23T02:14:28.533Z,18.50
2023-02-23T02:17:12.526Z,19.73
2023-02-23T02:20:14.801Z,19.47
2023-02-23T02:23:22.733Z,19.57
2023-02-23T02:26:06.012Z,15.90
2023-02-23T02:29:01.343Z,19.07
2023-02-23T02:32:02.674Z,16.83
2023-02-23T02:35:16.302Z,21.23
2023-02-23T02:38:05.353Z,17.57
2023-02-23T02:40:53.082Z,18.73
2023-02-23T02:43:31.764Z,19.50
2023-02-23T02:46:05.226Z,20.33
2023-02-23T02:48:43.379Z,19.87
2023-02-23T02:51:17.727Z,21.37
2023-02-23T02:53:54.554Z,18.67
2023-02-23T02:56:26.481Z,18.27
2023-02-23T02:58:56.751Z,19.50
2023-02-23T03:01:42.319Z,23.23
2023-02-23T03:04:42.161Z,20.70
2023-02-23T03:07:38.612Z,20.07
2023-02-23T03:10:32.957Z,22.20
2023-02-23T03:13:30.400Z,20.07
2023-02-23T03:16:27.882Z,20.20
2023-02-23T03:19:24.417Z,22.83
2023-02-23T03:22:15.297Z,19.03
2023-02-23T03:25:08.353Z,21.63
2023-02-23T03:28:04.974Z,19.20
2023-02-23T03:30:59.414Z,18.00
2023-02-23T03:33:51.408Z,18.63
2023-02-23T03:36:43.257Z,18.53
2023-02-23T03:39:36.438Z,17.73
2023-02-23T03:42:26.858Z,16.10
2023-02-23T03:45:15.959Z,18.60
2023-02-23T03:48:02.860Z,18.50
2023-02-23T03:50:53.303Z,20.03
2023-02-23T03:53:45.679Z,18.80
2023-02-23T03:56:34.519Z,20.23
2023-02-23T03:59:23.665Z,21.47
2023-02-23T04:02:14.570Z,21.80
2023-02-23T04:05:03.617Z,21.97
2023-02-23T04:07:50.200Z,19.93
2023-02-23T04:10:36.142Z,21.60
2023-02-23T04:13:16.156Z,22.63
2023-02-23T04:15:48.866Z,21.70
2023-02-23T04:18:22.426Z,21.30
2023-02-23T04:20:50.437Z,20.40
2023-02-23T04:23:18.938Z,21.33
2023-02-23T04:25:47.713Z,20.77
2023-02-23T04:28:15.902Z,21.50
2023-02-23T04:30:44.041Z,19.63
2023-02-23T04:33:12.052Z,21.37
2023-02-23T04:35:41.549Z,22.47
2023-02-23T04:38:09.516Z,22.80
2023-02-23T04:40:37.589Z,23.23
2023-02-23T04:43:05.564Z,20.70
2023-02-23T04:45:33.420Z,23.50
2023-02-23T04:48:01.522Z,20.00
2023-02-23T04:50:31.596Z,22.83
2023-02-23T04:53:01.836Z,21.50
2023-02-23T04:55:29.832Z,22.97
2023-02-23T04:57:58.997Z,21.80
2023-02-23T05:00:27.077Z,19.83
2023-02-23T05:02:54.990Z,20.13
2023-02-23T05:05:22.937Z,21.33
2023-02-23T05:07:50.886Z,19.93
2023-02-23T05:10:20.261Z,21.70
2023-02-23T05:12:48.128Z,19.43
2023-02-23T05:15:16.544Z,21.97
2023-02-23T05:17:44.384Z,21.17
2023-02-23T05:20:14.315Z,19.43
2023-02-23T05:22:42.663Z,21.07
2023-02-23T05:25:11.872Z,19.33
2023-02-23T05:27:41.596Z,20.50
2023-02-23T05:30:10.881Z,21.20
2023-02-23T05:32:38.815Z,22.50
2023-02-23T05:35:07.583Z,20.43
2023-02-23T05:37:35.690Z,20.70
2023-02-23T05:40:03.738Z,21.33
2023-02-23T05:42:31.631Z,22.07
2023-02-23T05:45:00.875Z,22.27
2023-02-23T05:47:28.788Z,21.50
2023-02-23T05:49:56.668Z,22.30
2023-02-23T05:52:24.610Z,20.93
2023-02-23T05:54:52.597Z,24.37
2023-02-23T05:57:20.565Z,24.93
2023-02-23T05:59:48.429Z,23.63
2023-02-23T06:02:17.697Z,24.13
2023-02-23T06:04:46.754Z,21.63
2023-02-23T06:07:14.670Z,24.00
2023-02-23T06:09:44.471Z,22.03
2023-02-23T06:12:12.733Z,21.50
2023-02-23T06:14:40.745Z,20.83
2023-02-23T06:17:08.730Z,25.43
2023-02-23T06:19:38.000Z,25.80
2023-02-23T06:22:05.849Z,27.87
2023-02-23T06:24:34.336Z,22.00
2023-02-23T06:27:02.757Z,26.23
2023-02-23T06:29:30.756Z,20.17
2023-02-23T06:32:00.960Z,24.67
2023-02-23T06:34:29.346Z,23.33
2023-02-23T06:36:58.765Z,22.23
2023-02-23T06:39:26.724Z,21.37
2023-02-23T06:41:54.648Z,23.07
2023-02-23T06:44:22.632Z,22.37
2023-02-23T06:46:50.689Z,21.53
2023-02-23T06:49:18.692Z,19.30
2023-02-23T06:51:47.577Z,22.50
2023-02-23T06:54:17.575Z,22.70
2023-02-23T06:56:45.489Z,23.43
2023-02-23T06:59:13.341Z,22.93
2023-02-23T07:01:42.402Z,19.90
2023-02-23T07:04:10.344Z,18.20
2023-02-23T07:06:38.422Z,17.20
2023-02-23T07:09:06.508Z,16.50
2023-02-23T07:11:35.853Z,17.23
2023-02-23T07:14:03.834Z,16.67
2023-02-23T07:16:32.142Z,15.87
2023-02-23T07:19:00.148Z,15.83
2023-02-23T07:21:28.041Z,14.47
2023-02-23T07:23:56.154Z,13.80
2023-02-23T07:26:24.081Z,17.63
2023-02-23T07:28:54.314Z,18.23
2023-02-23T07:31:22.606Z,15.73
2023-02-23T07:33:50.813Z,17.57
2023-02-23T07:36:18.671Z,17.83
2023-02-23T07:38:46.551Z,18.60
2023-02-23T07:41:14.537Z,16.87
2023-02-23T07:43:42.630Z,19.13
2023-02-23T07:46:12.100Z,17.50
2023-02-23T07:48:45.118Z,15.37
2023-02-23T07:51:15.325Z,15.13
2023-02-23T07:53:43.903Z,12.87
2023-02-23T07:56:13.503Z,16.63
2023-02-23T07:58:43.187Z,15.10
2023-02-23T08:01:13.592Z,14.43
2023-02-23T08:03:41.816Z,18.00
2023-02-23T08:06:09.703Z,13.03
2023-02-23T08:08:37.653Z,13.83
2023-02-23T08:11:06.863Z,16.37
2023-02-23T08:13:36.079Z,16.77
2023-02-23T08:16:04.172Z,15.80
2023-02-23T08:18:33.466Z,16.80
2023-02-23T08:21:02.150Z,15.07
2023-02-23T08:23:30.925Z,14.73
2023-02-23T08:25:59.574Z,15.83
2023-02-23T08:28:28.798Z,15.80
2023-02-23T08:30:56.868Z,16.83
2023-02-23T08:33:24.948Z,14.90
2023-02-23T08:35:54.506Z,12.60
2023-02-23T08:38:22.442Z,14.17
2023-02-23T08:40:50.750Z,12.47
2023-02-23T08:43:18.576Z,13.33
2023-02-23T08:45:46.503Z,13.80
2023-02-23T08:48:14.408Z,11.10
2023-02-23T08:50:42.637Z,9.73
2023-02-23T08:53:11.877Z,14.10
2023-02-23T08:55:39.921Z,10.47
2023-02-23T08:58:10.629Z,14.17
2023-02-23T09:00:38.930Z,7.40
2023-02-23T09:03:07.936Z,10.30
2023-02-23T09:05:38.868Z,10.23
2023-02-23T09:08:07.685Z,8.03
2023-02-23T09:10:37.064Z,8.27
2023-02-23T09:13:05.085Z,11.07
2023-02-23T09:15:33.144Z,9.80
2023-02-23T09:18:02.423Z,10.47
2023-02-23T09:20:31.564Z,9.57
2023-02-23T09:22:59.853Z,9.57
2023-02-23T09:25:29.378Z,9.93
2023-02-23T09:27:59.639Z,9.83
2023-02-23T09:30:28.365Z,9.47
2023-02-23T09:32:57.526Z,10.47
2023-02-23T09:35:26.350Z,9.17
2023-02-23T09:37:56.351Z,8.43
2023-02-23T09:40:25.777Z,10.43
2023-02-23T09:43:01.747Z,9.10
2023-02-23T09:45:36.738Z,8.03
2023-02-23T09:48:16.598Z,8.63
2023-02-23T09:50:48.817Z,8.07
2023-02-23T09:53:29.200Z,8.37
2023-02-23T09:55:58.828Z,9.03
2023-02-23T09:58:31.234Z,12.17
2023-02-23T10:01:22.447Z,16.27
2023-02-23T10:03:56.853Z,13.83
2023-02-23T10:06:24.866Z,12.20
2023-02-23T10:09:04.309Z,16.43
2023-02-23T10:11:42.032Z,16.73
2023-02-23T10:14:23.608Z,18.10
2023-02-23T10:17:07.054Z,13.97
2023-02-23T10:19:44.552Z,16.37
2023-02-23T10:22:15.727Z,15.47
2023-02-23T10:24:46.560Z,14.57
2023-02-23T10:27:18.334Z,14.83
2023-02-23T10:29:52.600Z,14.67
2023-02-23T10:32:29.026Z,15.97
2023-02-23T10:34:57.661Z,13.30
2023-02-23T10:37:26.571Z,13.93
2023-02-23T10:39:54.821Z,19.27
2023-02-23T10:42:28.871Z,13.93
2023-02-23T10:44:59.993Z,10.87
2023-02-23T10:47:31.790Z,12.57
2023-02-23T10:49:59.996Z,14.93
2023-02-23T10:52:32.871Z,19.23
2023-02-23T10:55:03.376Z,15.43
2023-02-23T10:57:34.403Z,15.13
2023-02-23T11:00:10.099Z,19.57
2023-02-23T11:02:38.230Z,15.63
2023-02-23T11:05:07.664Z,17.53
2023-02-23T11:07:35.884Z,14.87
2023-02-23T11:10:29.618Z,17.87
2023-02-23T11:12:57.517Z,12.70
2023-02-23T11:15:48.137Z,14.60
2023-02-23T11:18:22.580Z,11.83
2023-02-23T11:20:51.675Z,9.97
2023-02-23T11:23:24.600Z,8.90
2023-02-23T11:25:56.446Z,11.13
2023-02-23T11:28:30.237Z,9.83
2023-02-23T11:31:03.637Z,9.70
2023-02-23T11:33:36.048Z,10.87
2023-02-23T11:36:26.503Z,15.07
2023-02-23T11:39:04.011Z,10.13
2023-02-23T11:41:35.081Z,7.70
2023-02-23T11:44:06.288Z,9.93
2023-02-23T11:46:39.689Z,14.37
2023-02-23T11:49:09.842Z,8.27
2023-02-23T11:51:41.022Z,11.07
2023-02-23T11:54:20.430Z,7.63
2023-02-23T11:56:52.074Z,14.33
2023-02-23T11:59:23.257Z,9.60
2023-02-23T12:01:55.338Z,9.83
2023-02-23T12:04:30.482Z,10.93
2023-02-23T12:07:26.852Z,7.10
2023-02-23T12:10:01.788Z,7.27
2023-02-23T12:12:32.585Z,10.40
2023-02-23T12:15:09.489Z,16.37
2023-02-23T12:17:45.199Z,9.77
2023-02-23T12:20:19.580Z,9.77
2023-02-23T12:22:52.039Z,11.27
2023-02-23T12:25:26.755Z,10.67
2023-02-23T12:28:10.316Z,13.13
2023-02-23T12:30:47.209Z,9.17
2023-02-23T12:33:20.670Z,15.77
2023-02-23T12:35:55.670Z,7.63
2023-02-23T12:38:33.200Z,8.33
2023-02-23T12:41:05.989Z,9.90
2023-02-23T12:43:40.532Z,11.47
2023-02-23T12:46:13.481Z,7.60
2023-02-23T12:48:50.956Z,10.17
2023-02-23T12:51:27.432Z,13.87
2023-02-23T12:53:55.404Z,14.70
2023-02-23T12:56:36.485Z,19.20
2023-02-23T12:59:20.030Z,9.90
2023-02-23T13:01:54.222Z,9.63
2023-02-23T13:04:52.154Z,7.90
2023-02-23T13:07:24.181Z,7.80
2023-02-23T13:10:05.128Z,10.27
2023-02-23T13:12:43.927Z,9.50
2023-02-23T13:15:27.121Z,10.37
2023-02-23T13:18:01.530Z,9.70
2023-02-23T13:20:37.430Z,11.80
2023-02-23T13:23:17.015Z,7.40
2023-02-23T13:25:54.124Z,9.10
2023-02-23T13:28:37.332Z,8.87
2023-02-23T13:31:06.056Z,13.77
2023-02-23T13:33:43.954Z,10.33
2023-02-23T13:36:14.521Z,7.43
2023-02-23T13:38:48.705Z,10.30
2023-02-23T13:41:30.495Z,8.93
2023-02-23T13:44:09.085Z,10.03
2023-02-23T13:46:47.487Z,11.00
2023-02-23T13:49:28.414Z,12.33
2023-02-23T13:52:01.681Z,9.47
2023-02-23T13:54:34.373Z,16.30
2023-02-23T13:57:05.489Z,9.70
2023-02-23T13:59:42.729Z,5.57
2023-02-23T14:02:28.718Z,9.70
2023-02-23T14:04:59.076Z,7.73
2023-02-23T14:07:32.176Z,5.67
2023-02-23T14:10:04.868Z,8.23
2023-02-23T14:12:35.948Z,7.87
2023-02-23T14:15:39.340Z,6.77
2023-02-23T14:18:34.860Z,7.13
2023-02-23T14:21:21.014Z,6.43
2023-02-23T14:23:53.684Z,6.30
2023-02-23T14:26:43.099Z,8.93
2023-02-23T14:29:22.800Z,10.43
2023-02-23T14:32:25.424Z,8.47
2023-02-23T14:34:58.234Z,7.00
2023-02-23T14:37:32.121Z,10.33
2023-02-23T14:40:08.913Z,6.80
2023-02-23T14:42:40.057Z,8.60
2023-02-23T14:45:20.088Z,7.40
2023-02-23T14:47:52.042Z,7.43
2023-02-23T14:50:26.841Z,9.67
2023-02-23T14:52:56.573Z,9.20
2023-02-23T14:55:29.238Z,9.63
2023-02-23T14:57:58.259Z,11.73
2023-02-23T15:00:32.374Z,6.17
2023-02-23T15:03:02.189Z,7.47
2023-02-23T15:05:33.962Z,7.77
2023-02-23T15:08:04.170Z,8.60
2023-02-23T15:10:34.968Z,9.23
2023-02-23T15:13:09.286Z,6.07
2023-02-23T15:15:39.240Z,9.73
2023-02-23T15:18:07.239Z,10.90
2023-02-23T15:23:05.677Z,9.80
2023-02-23T15:25:39.073Z,7.37
2023-02-23T15:28:22.568Z,8.33
2023-02-23T15:30:52.727Z,10.43
2023-02-23T15:33:23.506Z,10.67
2023-02-23T15:35:57.330Z,11.67
2023-02-23T15:38:42.992Z,7.57
2023-02-23T15:41:18.743Z,9.87
2023-02-23T15:43:46.988Z,8.30
2023-02-23T15:46:24.408Z,10.63
2023-02-23T15:48:54.524Z,8.80
2023-02-23T15:51:33.301Z,13.47
2023-02-23T15:54:03.466Z,18.20
2023-02-23T15:56:34.911Z,14.10
2023-02-23T15:59:08.130Z,12.47
2023-02-23T16:01:43.678Z,9.83
2023-02-23T16:04:18.836Z,9.93
2023-02-23T16:06:53.621Z,11.10
2023-02-23T16:09:29.131Z,9.67
2023-02-23T16:12:02.478Z,9.67
2023-02-23T16:14:35.354Z,7.90
2023-02-23T16:17:11.666Z,11.93
2023-02-23T16:19:41.795Z,9.23
2023-02-23T16:22:21.317Z,8.77
2023-02-23T16:25:00.963Z,8.27
2023-02-23T16:27:30.237Z,7.73
2023-02-23T16:30:01.255Z,12.40
2023-02-23T16:32:39.343Z,10.77
2023-02-23T16:35:18.130Z,13.00
2023-02-23T16:37:59.052Z,11.50
2023-02-23T16:40:28.961Z,12.03
2023-02-23T16:42:59.405Z,8.83
2023-02-23T16:45:29.465Z,10.77
2023-02-23T16:48:02.119Z,9.27
2023-02-23T16:50:30.882Z,8.57
2023-02-23T16:53:00.361Z,10.17
2023-02-23T16:55:29.694Z,11.47
2023-02-23T16:58:01.497Z,8.10
2023-02-23T17:00:31.230Z,10.43
2023-02-23T17:03:00.709Z,10.00
2023-02-23T17:05:30.157Z,8.50
2023-02-23T17:07:58.982Z,11.37
2023-02-23T17:10:31.437Z,11.90
2023-02-23T17:13:02.458Z,12.83
2023-02-23T17:15:32.710Z,9.80
2023-02-23T17:18:00.783Z,12.60
2023-02-23T17:20:29.620Z,14.47
2023-02-23T17:22:59.991Z,12.73
2023-02-23T17:25:29.415Z,13.27
2023-02-23T17:27:58.570Z,13.07
2023-02-23T17:30:27.332Z,10.37
2023-02-23T17:32:57.213Z,13.03
2023-02-23T17:35:28.754Z,14.13
2023-02-23T17:37:56.652Z,15.17
2023-02-23T17:40:29.531Z,10.13
2023-02-23T17:43:00.798Z,10.67
2023-02-23T17:45:29.560Z,13.03
2023-02-23T17:47:57.952Z,10.13
2023-02-23T17:50:27.919Z,10.07
2023-02-23T17:52:56.814Z,11.47
2023-02-23T17:55:25.689Z,10.70
2023-02-23T17:57:53.689Z,8.77
2023-02-23T18:00:25.233Z,11.90
2023-02-23T18:02:53.345Z,10.77
2023-02-23T18:05:21.538Z,11.70
2023-02-23T18:07:49.545Z,14.43
2023-02-23T18:10:17.854Z,10.60
2023-02-23T18:12:46.012Z,11.83
2023-02-23T18:15:14.106Z,10.80
2023-02-23T18:17:43.387Z,10.67
2023-02-23T18:20:16.167Z,12.87
2023-02-23T18:22:44.568Z,9.97
2023-02-23T18:25:21.242Z,9.10
2023-02-23T18:27:53.806Z,12.33
2023-02-23T18:30:22.616Z,11.80
2023-02-23T18:32:52.715Z,11.83
2023-02-23T18:35:20.990Z,14.30
2023-02-23T18:37:49.641Z,12.87
2023-02-23T18:40:21.382Z,15.70
2023-02-23T18:42:49.545Z,14.40
2023-02-23T18:45:17.832Z,18.33
2023-02-23T18:47:45.777Z,14.43
2023-02-23T18:50:19.299Z,10.03
2023-02-23T18:52:48.839Z,12.83
2023-02-23T18:55:17.647Z,12.40
2023-02-23T18:57:45.746Z,13.27
2023-02-23T19:00:15.378Z,12.37
2023-02-23T19:02:46.456Z,12.47
2023-02-23T19:05:20.879Z,11.60
2023-02-23T19:07:50.273Z,15.03
2023-02-23T19:10:19.405Z,12.37
2023-02-23T19:12:47.390Z,11.57
2023-02-23T19:15:15.319Z,9.10
2023-02-23T19:17:43.212Z,12.33
2023-02-23T19:20:14.185Z,12.47
2023-02-23T19:22:43.932Z,10.97
2023-02-23T19:25:14.258Z,14.57
2023-02-23T19:27:43.509Z,11.80
2023-02-23T19:30:14.397Z,11.57
2023-02-23T19:32:43.952Z,12.03
2023-02-23T19:35:15.768Z,13.87
2023-02-23T19:37:50.436Z,10.53
2023-02-23T19:40:21.865Z,12.93
2023-02-23T19:42:51.301Z,14.67
2023-02-23T19:45:20.052Z,12.90
2023-02-23T19:47:48.262Z,13.37
2023-02-23T19:50:19.046Z,13.77
2023-02-23T19:52:50.018Z,15.67
2023-02-23T19:55:20.434Z,11.10
2023-02-23T19:57:48.444Z,14.57
2023-02-23T20:00:17.148Z,11.43
2023-02-23T20:02:45.149Z,13.70
2023-02-23T20:05:15.757Z,14.27
2023-02-23T20:07:43.973Z,18.17
2023-02-23T20:10:16.533Z,31.57
2023-02-23T20:12:44.949Z,15.47
2023-02-23T20:15:14.886Z,15.27
2023-02-23T20:17:42.888Z,16.60
2023-02-23T20:20:12.376Z,16.33
2023-02-23T20:22:41.972Z,14.60
2023-02-23T20:25:12.566Z,13.97
2023-02-23T20:27:42.821Z,11.67
2023-02-23T20:30:12.977Z,33.40
2023-02-23T20:32:41.432Z,20.87
2023-02-23T20:35:11.652Z,17.67
2023-02-23T20:37:39.869Z,52.07
2023-02-23T20:40:15.777Z,17.67
2023-02-23T20:42:47.695Z,19.47
2023-02-23T20:45:17.998Z,17.00
2023-02-23T20:47:46.795Z,13.73
2023-02-23T20:50:15.826Z,12.77
2023-02-23T20:52:44.213Z,18.50
2023-02-23T20:55:12.936Z,23.63
2023-02-23T20:57:41.169Z,86.60
2023-02-23T21:00:12.956Z,33.50
2023-02-23T21:02:41.855Z,64.13
2023-02-23T21:05:12.592Z,64.17
2023-02-23T21:07:40.992Z,29.67
2023-02-23T21:10:10.950Z,30.77
2023-02-23T21:12:38.823Z,26.07
2023-02-23T21:15:09.255Z,48.27
2023-02-23T21:17:40.465Z,28.13
2023-02-23T21:20:11.553Z,25.77
2023-02-23T21:22:40.253Z,19.33
2023-02-23T21:25:10.816Z,16.53
2023-02-23T21:27:39.447Z,13.73
2023-02-23T21:30:10.842Z,16.40
2023-02-23T21:32:42.179Z,20.60
2023-02-23T21:35:11.884Z,22.20
2023-02-23T21:37:41.217Z,34.00
2023-02-23T21:40:12.862Z,23.33
2023-02-23T21:42:42.058Z,22.97
2023-02-23T21:45:12.287Z,18.17
2023-02-23T21:47:44.455Z,20.33
2023-02-23T21:50:14.748Z,19.47
2023-02-23T21:52:43.805Z,23.50
2023-02-23T21:55:21.147Z,25.83
2023-02-23T21:57:50.124Z,15.07
2023-02-23T22:00:19.124Z,18.87
2023-02-23T22:02:48.885Z,21.43
2023-02-23T22:05:18.402Z,17.97
2023-02-23T22:07:49.674Z,20.70
2023-02-23T22:10:18.293Z,24.47
2023-02-23T22:12:46.121Z,14.13
2023-02-23T22:15:16.419Z,12.83
2023-02-23T22:17:44.696Z,17.80
2023-02-23T22:20:14.580Z,16.97
2023-02-23T22:22:42.879Z,15.97
2023-02-23T22:25:11.725Z,15.60
2023-02-23T22:27:41.559Z,22.23
2023-02-23T22:30:12.112Z,18.83
2023-02-23T22:32:40.747Z,17.90
2023-02-23T22:35:09.430Z,15.50
2023-02-23T22:37:39.426Z,16.57
2023-02-23T22:40:12.281Z,15.63
2023-02-23T22:42:43.190Z,17.43
2023-02-23T22:45:12.184Z,17.93
2023-02-23T22:47:40.077Z,18.80
2023-02-23T22:50:11.873Z,15.17
2023-02-23T22:52:43.056Z,17.53
2023-02-23T22:55:12.983Z,18.53
2023-02-23T22:57:41.291Z,20.93
2023-02-23T23:00:11.168Z,17.23
2023-02-23T23:02:39.157Z,17.77
2023-02-23T23:05:08.303Z,18.43
2023-02-23T23:07:36.470Z,19.20
2023-02-23T23:10:09.285Z,18.90
2023-02-23T23:12:37.910Z,20.50
2023-02-23T23:15:14.585Z,19.53
2023-02-23T23:17:48.020Z,19.20
2023-02-23T23:20:17.985Z,20.23
2023-02-23T23:22:52.939Z,20.23
2023-02-23T23:25:42.431Z,20.27
2023-02-23T23:28:26.377Z,19.17
2023-02-23T23:30:56.152Z,21.50
2023-02-23T23:33:26.868Z,20.80
2023-02-23T23:35:54.787Z,21.73
2023-02-23T23:38:22.909Z,22.57
2023-02-23T23:40:53.591Z,19.30
2023-02-23T23:43:22.764Z,19.73
2023-02-23T23:45:51.860Z,21.73
2023-02-23T23:48:21.651Z,24.00
2023-02-23T23:50:50.647Z,19.47
2023-02-23T23:53:19.684Z,18.77
2023-02-23T23:55:47.746Z,20.37
2023-02-23T23:58:18.379Z,19.57
